^^
Meteo Knjazevac Station Historical Data
Daily Summary for July 22, 2021 Units:  Metric    English   Both
Daily Weekly Monthly Yearly Custom
  High: Low: Average:
Temperature: 13.1 °C 11.3 °C 12.2 °C
Dew Point: 9.9 °C 8.3 °C 9 °C
Humidity: 85% 75% 81%
Wind Speed: 12.9km/h 0km/h 4.8km/h
Wind Gust: 20.9km/h - -
Wind- - West
Pressure: 1025.6 hPa 1023.2 hPa -
Precipitation: 0 mm    
Historical Graphs
 
 
Tabular Data for July 22, 2021
Time Temperature Dew Point Pressure Wind Wind Speed Wind Gust Humidity Rainfall Rate (Hourly) solar Conditions
00:00 13.1 °C 9.9 °C 1025.6 hPa WSW 3.2 km/h 12.9 km/h 81% 0 mm 0 W/m2
00:10 13.1 °C 9.9 °C 1025.6 hPa WSW 3.2 km/h 6.4 km/h 81% 0 mm 0 W/m2
00:20 13 °C 9.8 °C 1025.6 hPa WSW 3.2 km/h 8 km/h 81% 0 mm 0 W/m2
00:30 13 °C 9.8 °C 1025.6 hPa WSW 3.2 km/h 9.7 km/h 81% 0 mm 0 W/m2
00:40 12.9 °C 9.7 °C 1025.6 hPa WSW 3.2 km/h 9.7 km/h 81% 0 mm 0 W/m2
00:50 12.9 °C 9.7 °C 1025.3 hPa West 1.6 km/h 4.8 km/h 81% 0 mm 0 W/m2
01:00 12.8 °C 9.6 °C 1025.6 hPa West 3.2 km/h 8 km/h 81% 0 mm 0 W/m2
01:10 12.8 °C 9.6 °C 1025.6 hPa West 4.8 km/h 8 km/h 81% 0 mm 0 W/m2
01:20 12.9 °C 9.7 °C 1025.6 hPa WSW 3.2 km/h 8 km/h 81% 0 mm 0 W/m2
01:30 12.8 °C 9.6 °C 1025.3 hPa West 1.6 km/h 6.4 km/h 81% 0 mm 0 W/m2
01:40 12.8 °C 9.6 °C 1025.3 hPa West 1.6 km/h 8 km/h 81% 0 mm 0 W/m2
01:50 12.7 °C 9.5 °C 1025.3 hPa Calm   3.2 km/h 81% 0 mm 0 W/m2
02:00 12.7 °C 9.5 °C 1025.3 hPa Calm   3.2 km/h 81% 0 mm 0 W/m2
02:10 12.6 °C 9.4 °C 1024.9 hPa Calm   3.2 km/h 81% 0 mm 0 W/m2
02:20 12.5 °C 9.3 °C 1024.9 hPa WNW 1.6 km/h 3.2 km/h 81% 0 mm 0 W/m2
02:30 12.5 °C 9.3 °C 1024.9 hPa WSW 1.6 km/h 6.4 km/h 81% 0 mm 0 W/m2
02:40 12.4 °C 9.6 °C 1024.9 hPa West 3.2 km/h 6.4 km/h 83% 0 mm 0 W/m2
02:50 12.3 °C 9.5 °C 1024.6 hPa WNW 3.2 km/h 6.4 km/h 83% 0 mm 0 W/m2
03:00 12.3 °C 9.5 °C 1024.6 hPa NW 1.6 km/h 6.4 km/h 83% 0 mm 0 W/m2
03:10 12.3 °C 9.5 °C 1024.3 hPa Calm   4.8 km/h 83% 0 mm 0 W/m2
03:20 12.2 °C 9.4 °C 1024.3 hPa Calm   1.6 km/h 83% 0 mm 0 W/m2
03:30 12.2 °C 9.6 °C 1024.3 hPa NNW 1.6 km/h 3.2 km/h 84% 0 mm 0 W/m2
03:40 12.1 °C 9.5 °C 1024.3 hPa Calm   1.6 km/h 84% 0 mm 0 W/m2
03:50 12 °C 9.6 °C 1024.3 hPa Calm   3.2 km/h 85% 0 mm 0 W/m2
04:00 12 °C 9.6 °C 1024.3 hPa Calm   3.2 km/h 85% 0 mm 0 W/m2
04:10 11.9 °C 9.4 °C 1024.3 hPa West 3.2 km/h 4.8 km/h 85% 0 mm 0 W/m2
04:20 11.8 °C 9.2 °C 1024.3 hPa West 1.6 km/h 4.8 km/h 84% 0 mm 0 W/m2
04:30 11.8 °C 9.2 °C 1024.3 hPa West 1.6 km/h 4.8 km/h 84% 0 mm 0 W/m2
04:40 11.7 °C 9.1 °C 1024.3 hPa West 1.6 km/h 4.8 km/h 84% 0 mm 0 W/m2
04:50 11.7 °C 8.9 °C 1024.3 hPa WNW 1.6 km/h 4.8 km/h 83% 0 mm 0 W/m2
05:00 11.6 °C 8.8 °C 1024.3 hPa WNW 1.6 km/h 4.8 km/h 83% 0 mm 0 W/m2
05:10 11.6 °C 9 °C 1024.3 hPa West 3.2 km/h 6.4 km/h 84% 0 mm 0 W/m2
05:20 11.6 °C 8.8 °C 1024.3 hPa West 3.2 km/h 9.7 km/h 83% 0 mm 0 W/m2
05:30 11.5 °C 8.6 °C 1024.3 hPa WSW 4.8 km/h 11.3 km/h 82% 0 mm 0 W/m2
05:40 11.6 °C 8.4 °C 1023.9 hPa WSW 8 km/h 12.9 km/h 81% 0 mm 0 W/m2
05:50 11.6 °C 8.8 °C 1023.9 hPa SW 4.8 km/h 9.7 km/h 83% 0 mm 0 W/m2
06:00 11.6 °C 9 °C 1023.9 hPa WSW 4.8 km/h 9.7 km/h 84% 0 mm 0 W/m2
06:10 11.5 °C 9.1 °C 1024.3 hPa WSW 3.2 km/h 9.7 km/h 85% 0 mm 0 W/m2
06:20 11.5 °C 9.1 °C 1023.9 hPa SW 4.8 km/h 8 km/h 85% 0 mm 0 W/m2
06:30 11.4 °C 8.9 °C 1023.9 hPa WSW 4.8 km/h 8 km/h 85% 0 mm 1 W/m2
06:40 11.5 °C 9.1 °C 1023.9 hPa SW 8 km/h 11.3 km/h 85% 0 mm 2 W/m2
06:50 11.4 °C 9.1 °C 1023.6 hPa WSW 3.2 km/h 8 km/h 85% 0 mm 5 W/m2
07:00 11.4 °C 8.9 °C 1023.6 hPa WSW 4.8 km/h 8 km/h 85% 0 mm 8 W/m2
07:10 11.3 °C 8.9 °C 1023.6 hPa SW 4.8 km/h 8 km/h 85% 0 mm 14 W/m2
07:20 11.3 °C 8.9 °C 1023.6 hPa WSW 4.8 km/h 9.7 km/h 85% 0 mm 26 W/m2
07:30 11.3 °C 8.9 °C 1023.2 hPa SW 8 km/h 11.3 km/h 85% 0 mm 24 W/m2
07:40 11.3 °C 8.9 °C 1023.2 hPa SW 4.8 km/h 11.3 km/h 85% 0 mm 35 W/m2
07:50 11.4 °C 8.8 °C 1023.2 hPa WSW 9.7 km/h 19.3 km/h 84% 0 mm 34 W/m2
08:00 11.5 °C 8.3 °C 1023.6 hPa WSW 8 km/h 16.1 km/h 81% 0 mm 37 W/m2
08:10 11.6 °C 8.4 °C 1023.2 hPa West 9.7 km/h 16.1 km/h 81% 0 mm 43 W/m2
08:20 11.6 °C 8.4 °C 1023.2 hPa West 12.9 km/h 19.3 km/h 81% 0 mm 57 W/m2
08:30 11.6 °C 8.5 °C 1023.2 hPa West 11.3 km/h 19.3 km/h 81% 0 mm 51 W/m2
08:40 11.7 °C 8.6 °C 1023.2 hPa West 8 km/h 19.3 km/h 81% 0 mm 67 W/m2
08:50 11.8 °C 8.4 °C 1023.2 hPa West 11.3 km/h 16.1 km/h 80% 0 mm 104 W/m2
09:00 11.9 °C 8.6 °C 1023.2 hPa West 8 km/h 14.5 km/h 80% 0 mm 96 W/m2
09:10 12 °C 8.4 °C 1023.2 hPa West 11.3 km/h 20.9 km/h 79% 0 mm 105 W/m2
09:20 12.1 °C 8.6 °C 1023.2 hPa West 8 km/h 20.9 km/h 79% 0 mm 84 W/m2
09:30 12.1 °C 8.4 °C 1023.2 hPa West 9.7 km/h 19.3 km/h 78% 0 mm 97 W/m2
09:40 12.2 °C 8.5 °C 1023.2 hPa West 4.8 km/h 20.9 km/h 78% 0 mm 76 W/m2
09:50 12.2 °C 8.5 °C 1023.2 hPa West 4.8 km/h 19.3 km/h 78% 0 mm 89 W/m2
10:00 12.2 °C 8.5 °C 1023.2 hPa West 11.3 km/h 17.7 km/h 78% 0 mm 83 W/m2
10:10 12.3 °C 8.6 °C 1023.2 hPa West 4.8 km/h 16.1 km/h 78% 0 mm 76 W/m2
10:20 12.3 °C 8.6 °C 1023.2 hPa West 4.8 km/h 11.3 km/h 78% 0 mm 106 W/m2
10:30 12.3 °C 8.4 °C 1023.2 hPa West 9.7 km/h 20.9 km/h 77% 0 mm 103 W/m2
10:40 12.4 °C 8.5 °C 1023.2 hPa West 9.7 km/h 17.7 km/h 77% 0 mm 132 W/m2
10:50 12.5 °C 8.6 °C 1023.2 hPa West 8 km/h 19.3 km/h 77% 0 mm 188 W/m2
11:00 12.7 °C 8.8 °C 1023.2 hPa WSW 9.7 km/h 17.7 km/h 77% 0 mm 151 W/m2
11:10 12.8 °C 8.5 °C 1023.2 hPa West 8 km/h 20.9 km/h 75% 0 mm 110 W/m2
11:20 12.8 °C 8.5 °C 1023.2 hPa WSW 8 km/h 19.3 km/h 75% 0 mm 78 W/m2
11:30 12.8 °C 8.7 °C 1023.2 hPa West 3.2 km/h 9.7 km/h 76% 0 mm 68 W/m2
11:40 12.8 °C 8.5 °C 1023.2 hPa WNW 8 km/h 12.9 km/h 75% 0 mm 63 W/m2
11:50 12.8 °C 8.5 °C 1023.2 hPa WNW 4.8 km/h 11.3 km/h 75% 0 mm 64 W/m2
12:00 12.8 °C 8.5 °C 1023.2 hPa WNW 4.8 km/h 9.7 km/h 75% 0 mm 65 W/m2
12:10 12.8 °C 8.4 °C 1023.2 hPa NW 1.6 km/h 9.7 km/h 75% 0 mm 66 W/m2
12:20 12.8 °C 8.5 °C 1023.2 hPa WNW 4.8 km/h 9.7 km/h 75% 0 mm 73 W/m2
12:30 12.8 °C 8.5 °C 1023.2 hPa NW 8 km/h 14.5 km/h 75% 0 mm 59 W/m2
Knjazevac, Serbia
Compliments of Weather Underground - 2 mb